sensor_id;sensor_type;location;lat;lon;timestamp;temperature;humidity
13462;DHT22;6803;45.264;5.468;2023-05-10T00:02:26;12.90;99.90
13462;DHT22;6803;45.264;5.468;2023-05-10T00:04:59;13.00;99.90
13462;DHT22;6803;45.264;5.468;2023-05-10T00:07:30;13.00;99.90
13462;DHT22;6803;45.264;5.468;2023-05-10T00:10:00;13.00;99.90
13462;DHT22;6803;45.264;5.468;2023-05-10T00:12:32;12.90;99.90
13462;DHT22;6803;45.264;5.468;2023-05-10T00:15:03;12.90;99.90
13462;DHT22;6803;45.264;5.468;2023-05-10T00:17:35;12.80;99.90
13462;DHT22;6803;45.264;5.468;2023-05-10T00:20:07;12.80;99.90
13462;DHT22;6803;45.264;5.468;2023-05-10T00:22:39;12.80;99.90
13462;DHT22;6803;45.264;5.468;2023-05-10T00:25:10;12.70;99.90
13462;DHT22;6803;45.264;5.468;2023-05-10T00:27:41;12.70;99.90
13462;DHT22;6803;45.264;5.468;2023-05-10T00:30:12;12.70;99.90
13462;DHT22;6803;45.264;5.468;2023-05-10T00:32:44;12.70;99.90
13462;DHT22;6803;45.264;5.468;2023-05-10T00:35:17;12.70;99.90
13462;DHT22;6803;45.264;5.468;2023-05-10T00:37:48;12.70;99.90
13462;DHT22;6803;45.264;5.468;2023-05-10T00:40:19;12.70;99.90
13462;DHT22;6803;45.264;5.468;2023-05-10T00:42:50;12.70;99.90
13462;DHT22;6803;45.264;5.468;2023-05-10T00:45:21;12.70;99.90
13462;DHT22;6803;45.264;5.468;2023-05-10T00:47:51;12.70;99.90
13462;DHT22;6803;45.264;5.468;2023-05-10T00:53:08;12.60;99.90
13462;DHT22;6803;45.264;5.468;2023-05-10T00:55:40;12.50;99.90
13462;DHT22;6803;45.264;5.468;2023-05-10T00:58:11;12.50;99.90
13462;DHT22;6803;45.264;5.468;2023-05-10T01:00:43;12.30;99.90
13462;DHT22;6803;45.264;5.468;2023-05-10T01:03:16;12.30;99.90
13462;DHT22;6803;45.264;5.468;2023-05-10T01:05:47;12.30;99.90
13462;DHT22;6803;45.264;5.468;2023-05-10T01:08:18;12.10;99.90
13462;DHT22;6803;45.264;5.468;2023-05-10T01:10:50;12.00;99.90
13462;DHT22;6803;45.264;5.468;2023-05-10T01:13:30;11.90;99.90
13462;DHT22;6803;45.264;5.468;2023-05-10T01:16:02;11.90;99.90
13462;DHT22;6803;45.264;5.468;2023-05-10T01:18:35;11.90;99.90
13462;DHT22;6803;45.264;5.468;2023-05-10T01:21:12;11.90;99.90
13462;DHT22;6803;45.264;5.468;2023-05-10T01:24:03;12.00;99.90
13462;DHT22;6803;45.264;5.468;2023-05-10T01:27:01;12.00;99.90
13462;DHT22;6803;45.264;5.468;2023-05-10T01:29:58;12.00;99.90
13462;DHT22;6803;45.264;5.468;2023-05-10T01:32:35;12.00;99.90
13462;DHT22;6803;45.264;5.468;2023-05-10T01:35:10;12.00;99.90
13462;DHT22;6803;45.264;5.468;2023-05-10T01:37:44;12.00;99.90
13462;DHT22;6803;45.264;5.468;2023-05-10T01:40:19;12.10;99.90
13462;DHT22;6803;45.264;5.468;2023-05-10T01:42:53;12.10;99.90
13462;DHT22;6803;45.264;5.468;2023-05-10T01:45:29;12.10;99.90
13462;DHT22;6803;45.264;5.468;2023-05-10T01:48:11;12.10;99.90
13462;DHT22;6803;45.264;5.468;2023-05-10T01:53:22;12.10;99.90
13462;DHT22;6803;45.264;5.468;2023-05-10T01:55:55;12.00;99.90
13462;DHT22;6803;45.264;5.468;2023-05-10T01:58:29;11.90;99.90
13462;DHT22;6803;45.264;5.468;2023-05-10T02:01:03;11.90;99.90
13462;DHT22;6803;45.264;5.468;2023-05-10T02:03:36;12.00;99.90
13462;DHT22;6803;45.264;5.468;2023-05-10T02:06:10;12.00;99.90
13462;DHT22;6803;45.264;5.468;2023-05-10T02:08:42;12.00;99.90
13462;DHT22;6803;45.264;5.468;2023-05-10T02:11:15;11.90;99.90
13462;DHT22;6803;45.264;5.468;2023-05-10T02:13:49;12.00;99.90
13462;DHT22;6803;45.264;5.468;2023-05-10T02:16:23;11.90;99.90
13462;DHT22;6803;45.264;5.468;2023-05-10T02:18:55;12.00;99.90
13462;DHT22;6803;45.264;5.468;2023-05-10T02:21:28;12.00;99.90
13462;DHT22;6803;45.264;5.468;2023-05-10T02:24:01;12.00;99.90
13462;DHT22;6803;45.264;5.468;2023-05-10T02:26:33;12.00;99.90
13462;DHT22;6803;45.264;5.468;2023-05-10T02:29:04;12.00;99.90
13462;DHT22;6803;45.264;5.468;2023-05-10T02:31:36;12.00;99.90
13462;DHT22;6803;45.264;5.468;2023-05-10T02:34:09;12.00;99.90
13462;DHT22;6803;45.264;5.468;2023-05-10T02:36:41;11.90;99.90
13462;DHT22;6803;45.264;5.468;2023-05-10T02:39:13;12.00;99.90
13462;DHT22;6803;45.264;5.468;2023-05-10T02:41:47;11.90;99.90
13462;DHT22;6803;45.264;5.468;2023-05-10T02:44:20;11.90;99.90
13462;DHT22;6803;45.264;5.468;2023-05-10T02:46:51;12.00;99.90
13462;DHT22;6803;45.264;5.468;2023-05-10T02:49:22;12.00;99.90
13462;DHT22;6803;45.264;5.468;2023-05-10T02:51:55;12.00;99.90
13462;DHT22;6803;45.264;5.468;2023-05-10T02:54:30;12.00;99.90
13462;DHT22;6803;45.264;5.468;2023-05-10T02:57:03;12.00;99.90
13462;DHT22;6803;45.264;5.468;2023-05-10T02:59:35;11.90;99.90
13462;DHT22;6803;45.264;5.468;2023-05-10T03:02:06;11.90;99.90
13462;DHT22;6803;45.264;5.468;2023-05-10T03:04:37;11.80;99.90
13462;DHT22;6803;45.264;5.468;2023-05-10T03:07:09;11.80;99.90
13462;DHT22;6803;45.264;5.468;2023-05-10T03:09:40;11.90;99.90
13462;DHT22;6803;45.264;5.468;2023-05-10T03:12:15;11.90;99.90
13462;DHT22;6803;45.264;5.468;2023-05-10T03:14:52;12.00;99.90
13462;DHT22;6803;45.264;5.468;2023-05-10T03:17:25;11.90;99.90
13462;DHT22;6803;45.264;5.468;2023-05-10T03:19:57;11.80;99.90
13462;DHT22;6803;45.264;5.468;2023-05-10T03:22:32;11.80;99.90
13462;DHT22;6803;45.264;5.468;2023-05-10T03:25:06;11.80;99.90
13462;DHT22;6803;45.264;5.468;2023-05-10T03:27:40;11.90;99.90
13462;DHT22;6803;45.264;5.468;2023-05-10T03:30:13;11.90;99.90
13462;DHT22;6803;45.264;5.468;2023-05-10T03:32:45;11.90;99.90
13462;DHT22;6803;45.264;5.468;2023-05-10T03:35:16;11.90;99.90
13462;DHT22;6803;45.264;5.468;2023-05-10T03:37:47;11.90;99.90
13462;DHT22;6803;45.264;5.468;2023-05-10T03:40:18;11.90;99.90
13462;DHT22;6803;45.264;5.468;2023-05-10T03:42:49;11.90;99.90
13462;DHT22;6803;45.264;5.468;2023-05-10T03:45:20;11.80;99.90
13462;DHT22;6803;45.264;5.468;2023-05-10T03:47:51;11.80;99.90
13462;DHT22;6803;45.264;5.468;2023-05-10T03:50:22;11.70;99.90
13462;DHT22;6803;45.264;5.468;2023-05-10T03:52:53;11.80;99.90
13462;DHT22;6803;45.264;5.468;2023-05-10T03:55:25;11.80;99.90
13462;DHT22;6803;45.264;5.468;2023-05-10T03:57:56;11.80;99.90
13462;DHT22;6803;45.264;5.468;2023-05-10T04:00:27;11.80;99.90
13462;DHT22;6803;45.264;5.468;2023-05-10T04:02:58;11.80;99.90
13462;DHT22;6803;45.264;5.468;2023-05-10T04:05:29;11.80;99.90
13462;DHT22;6803;45.264;5.468;2023-05-10T04:08:00;11.70;99.90
13462;DHT22;6803;45.264;5.468;2023-05-10T04:10:31;11.80;99.90
13462;DHT22;6803;45.264;5.468;2023-05-10T04:13:02;11.80;99.90
13462;DHT22;6803;45.264;5.468;2023-05-10T04:15:33;11.80;99.90
13462;DHT22;6803;45.264;5.468;2023-05-10T04:18:05;11.80;99.90
13462;DHT22;6803;45.264;5.468;2023-05-10T04:20:37;11.80;99.90
13462;DHT22;6803;45.264;5.468;2023-05-10T04:23:08;11.70;99.90
13462;DHT22;6803;45.264;5.468;2023-05-10T04:25:40;11.80;99.90
13462;DHT22;6803;45.264;5.468;2023-05-10T04:28:11;11.80;99.90
13462;DHT22;6803;45.264;5.468;2023-05-10T04:30:42;11.70;99.90
13462;DHT22;6803;45.264;5.468;2023-05-10T04:33:13;11.70;99.90
13462;DHT22;6803;45.264;5.468;2023-05-10T04:35:44;11.70;99.90
13462;DHT22;6803;45.264;5.468;2023-05-10T04:38:15;11.70;99.90
13462;DHT22;6803;45.264;5.468;2023-05-10T04:40:46;11.70;99.90
13462;DHT22;6803;45.264;5.468;2023-05-10T04:43:17;11.80;99.90
13462;DHT22;6803;45.264;5.468;2023-05-10T04:45:48;11.80;99.90
13462;DHT22;6803;45.264;5.468;2023-05-10T04:48:20;11.90;99.90
13462;DHT22;6803;45.264;5.468;2023-05-10T04:50:51;11.90;99.90
13462;DHT22;6803;45.264;5.468;2023-05-10T04:53:22;11.80;99.90
13462;DHT22;6803;45.264;5.468;2023-05-10T04:55:53;11.90;99.90
13462;DHT22;6803;45.264;5.468;2023-05-10T04:58:24;11.90;99.90
13462;DHT22;6803;45.264;5.468;2023-05-10T05:00:55;12.00;99.90
13462;DHT22;6803;45.264;5.468;2023-05-10T05:03:27;12.00;99.90
13462;DHT22;6803;45.264;5.468;2023-05-10T05:06:09;11.90;99.90
13462;DHT22;6803;45.264;5.468;2023-05-10T05:08:40;11.90;99.90
13462;DHT22;6803;45.264;5.468;2023-05-10T05:11:12;12.00;99.90
13462;DHT22;6803;45.264;5.468;2023-05-10T05:13:42;12.00;99.90
13462;DHT22;6803;45.264;5.468;2023-05-10T05:16:13;12.10;99.90
13462;DHT22;6803;45.264;5.468;2023-05-10T05:18:46;12.10;99.90
13462;DHT22;6803;45.264;5.468;2023-05-10T05:21:19;12.00;99.90
13462;DHT22;6803;45.264;5.468;2023-05-10T05:23:50;12.00;99.90
13462;DHT22;6803;45.264;5.468;2023-05-10T05:26:21;12.10;99.90
13462;DHT22;6803;45.264;5.468;2023-05-10T05:28:52;12.20;99.90
13462;DHT22;6803;45.264;5.468;2023-05-10T05:31:23;12.10;99.90
13462;DHT22;6803;45.264;5.468;2023-05-10T05:33:54;12.20;99.90
13462;DHT22;6803;45.264;5.468;2023-05-10T05:36:25;12.30;99.90
13462;DHT22;6803;45.264;5.468;2023-05-10T05:38:55;12.20;99.90
13462;DHT22;6803;45.264;5.468;2023-05-10T05:41:26;12.30;99.90
13462;DHT22;6803;45.264;5.468;2023-05-10T05:43:57;12.30;99.90
13462;DHT22;6803;45.264;5.468;2023-05-10T05:46:28;12.40;99.90
13462;DHT22;6803;45.264;5.468;2023-05-10T05:48:58;12.30;99.90
13462;DHT22;6803;45.264;5.468;2023-05-10T05:51:29;12.30;99.90
13462;DHT22;6803;45.264;5.468;2023-05-10T05:56:38;12.40;99.90
13462;DHT22;6803;45.264;5.468;2023-05-10T05:59:09;12.30;99.90
13462;DHT22;6803;45.264;5.468;2023-05-10T06:01:40;12.50;99.90
13462;DHT22;6803;45.264;5.468;2023-05-10T06:04:12;12.50;99.90
13462;DHT22;6803;45.264;5.468;2023-05-10T06:06:43;12.40;99.90
13462;DHT22;6803;45.264;5.468;2023-05-10T06:09:14;12.70;99.90
13462;DHT22;6803;45.264;5.468;2023-05-10T06:11:46;12.60;99.90
13462;DHT22;6803;45.264;5.468;2023-05-10T06:14:17;12.70;99.90
13462;DHT22;6803;45.264;5.468;2023-05-10T06:16:48;12.70;99.90
13462;DHT22;6803;45.264;5.468;2023-05-10T06:19:19;12.70;99.90
13462;DHT22;6803;45.264;5.468;2023-05-10T06:21:50;12.70;99.90
13462;DHT22;6803;45.264;5.468;2023-05-10T06:24:22;12.70;99.90
13462;DHT22;6803;45.264;5.468;2023-05-10T06:26:52;12.70;99.90
13462;DHT22;6803;45.264;5.468;2023-05-10T06:29:23;12.80;99.90
13462;DHT22;6803;45.264;5.468;2023-05-10T06:31:54;12.80;99.90
13462;DHT22;6803;45.264;5.468;2023-05-10T06:34:25;12.50;99.90
13462;DHT22;6803;45.264;5.468;2023-05-10T06:36:56;12.70;99.90
13462;DHT22;6803;45.264;5.468;2023-05-10T06:39:29;12.80;99.90
13462;DHT22;6803;45.264;5.468;2023-05-10T06:42:00;12.90;99.90
13462;DHT22;6803;45.264;5.468;2023-05-10T06:44:33;13.20;99.90
13462;DHT22;6803;45.264;5.468;2023-05-10T06:47:04;13.20;99.90
13462;DHT22;6803;45.264;5.468;2023-05-10T06:49:35;13.00;99.90
13462;DHT22;6803;45.264;5.468;2023-05-10T06:52:06;13.10;99.90
13462;DHT22;6803;45.264;5.468;2023-05-10T06:54:37;13.40;99.90
13462;DHT22;6803;45.264;5.468;2023-05-10T06:57:08;13.50;99.90
13462;DHT22;6803;45.264;5.468;2023-05-10T06:59:40;13.40;99.90
13462;DHT22;6803;45.264;5.468;2023-05-10T07:02:11;13.10;99.90
13462;DHT22;6803;45.264;5.468;2023-05-10T07:04:42;13.00;99.90
13462;DHT22;6803;45.264;5.468;2023-05-10T07:07:13;13.30;99.90
13462;DHT22;6803;45.264;5.468;2023-05-10T07:09:44;13.40;99.90
13462;DHT22;6803;45.264;5.468;2023-05-10T07:12:15;13.10;99.90
13462;DHT22;6803;45.264;5.468;2023-05-10T07:14:47;13.10;99.90
13462;DHT22;6803;45.264;5.468;2023-05-10T07:17:19;13.20;99.90
13462;DHT22;6803;45.264;5.468;2023-05-10T07:19:50;13.30;99.90
13462;DHT22;6803;45.264;5.468;2023-05-10T07:22:22;12.90;99.90
13462;DHT22;6803;45.264;5.468;2023-05-10T07:24:53;12.90;99.90
13462;DHT22;6803;45.264;5.468;2023-05-10T07:27:24;13.00;99.90
13462;DHT22;6803;45.264;5.468;2023-05-10T07:29:55;13.10;99.90
13462;DHT22;6803;45.264;5.468;2023-05-10T07:32:27;13.50;99.90
13462;DHT22;6803;45.264;5.468;2023-05-10T07:34:58;13.70;99.90
13462;DHT22;6803;45.264;5.468;2023-05-10T07:37:29;13.60;99.90
13462;DHT22;6803;45.264;5.468;2023-05-10T07:40:00;13.00;99.90
13462;DHT22;6803;45.264;5.468;2023-05-10T07:42:31;12.90;99.90
13462;DHT22;6803;45.264;5.468;2023-05-10T07:45:06;12.70;99.90
13462;DHT22;6803;45.264;5.468;2023-05-10T07:47:38;12.70;99.90
13462;DHT22;6803;45.264;5.468;2023-05-10T07:50:10;13.00;99.90
13462;DHT22;6803;45.264;5.468;2023-05-10T07:52:41;12.80;99.90
13462;DHT22;6803;45.264;5.468;2023-05-10T07:55:13;12.60;99.90
13462;DHT22;6803;45.264;5.468;2023-05-10T07:57:45;12.60;99.90
13462;DHT22;6803;45.264;5.468;2023-05-10T08:00:19;12.80;99.90
13462;DHT22;6803;45.264;5.468;2023-05-10T08:02:50;12.90;99.90
13462;DHT22;6803;45.264;5.468;2023-05-10T08:05:22;13.10;99.90
13462;DHT22;6803;45.264;5.468;2023-05-10T08:07:53;13.00;99.90
13462;DHT22;6803;45.264;5.468;2023-05-10T08:10:25;12.60;99.90
13462;DHT22;6803;45.264;5.468;2023-05-10T08:12:57;12.90;99.90
13462;DHT22;6803;45.264;5.468;2023-05-10T08:15:27;13.00;99.90
13462;DHT22;6803;45.264;5.468;2023-05-10T08:17:59;12.90;99.90
13462;DHT22;6803;45.264;5.468;2023-05-10T08:20:30;13.20;99.90
13462;DHT22;6803;45.264;5.468;2023-05-10T08:23:01;13.60;99.90
13462;DHT22;6803;45.264;5.468;2023-05-10T08:25:33;13.90;99.90
13462;DHT22;6803;45.264;5.468;2023-05-10T08:28:04;14.00;99.90
13462;DHT22;6803;45.264;5.468;2023-05-10T08:30:37;14.50;99.90
13462;DHT22;6803;45.264;5.468;2023-05-10T08:33:08;14.40;99.90
13462;DHT22;6803;45.264;5.468;2023-05-10T08:35:39;14.10;99.90
13462;DHT22;6803;45.264;5.468;2023-05-10T08:38:11;14.60;99.90
13462;DHT22;6803;45.264;5.468;2023-05-10T08:40:43;14.80;99.90
13462;DHT22;6803;45.264;5.468;2023-05-10T08:43:15;14.90;99.90
13462;DHT22;6803;45.264;5.468;2023-05-10T08:45:46;15.30;99.90
13462;DHT22;6803;45.264;5.468;2023-05-10T08:48:17;15.30;99.90
13462;DHT22;6803;45.264;5.468;2023-05-10T08:50:50;14.90;99.90
13462;DHT22;6803;45.264;5.468;2023-05-10T08:53:22;15.30;99.90
13462;DHT22;6803;45.264;5.468;2023-05-10T08:55:55;15.90;99.90
13462;DHT22;6803;45.264;5.468;2023-05-10T08:58:27;16.40;99.90
13462;DHT22;6803;45.264;5.468;2023-05-10T09:00:59;16.50;99.90
13462;DHT22;6803;45.264;5.468;2023-05-10T09:03:32;16.10;99.90
13462;DHT22;6803;45.264;5.468;2023-05-10T09:06:03;16.00;99.90
13462;DHT22;6803;45.264;5.468;2023-05-10T09:11:14;15.00;99.90
13462;DHT22;6803;45.264;5.468;2023-05-10T09:13:45;15.50;99.90
13462;DHT22;6803;45.264;5.468;2023-05-10T09:16:17;16.00;99.90
13462;DHT22;6803;45.264;5.468;2023-05-10T09:18:49;15.80;99.90
13462;DHT22;6803;45.264;5.468;2023-05-10T09:21:21;15.50;99.90
13462;DHT22;6803;45.264;5.468;2023-05-10T09:23:52;15.50;99.90
13462;DHT22;6803;45.264;5.468;2023-05-10T09:26:25;15.50;99.90
13462;DHT22;6803;45.264;5.468;2023-05-10T09:28:57;15.40;99.90
13462;DHT22;6803;45.264;5.468;2023-05-10T09:31:48;15.10;99.90
13462;DHT22;6803;45.264;5.468;2023-05-10T09:34:28;14.90;99.90
13462;DHT22;6803;45.264;5.468;2023-05-10T09:36:57;14.60;99.90
13462;DHT22;6803;45.264;5.468;2023-05-10T09:39:34;14.50;99.90
13462;DHT22;6803;45.264;5.468;2023-05-10T09:42:07;14.30;99.90
13462;DHT22;6803;45.264;5.468;2023-05-10T09:44:38;14.60;99.90
13462;DHT22;6803;45.264;5.468;2023-05-10T09:47:10;14.70;99.90
13462;DHT22;6803;45.264;5.468;2023-05-10T09:49:42;14.90;99.90
13462;DHT22;6803;45.264;5.468;2023-05-10T09:52:13;15.30;99.90
13462;DHT22;6803;45.264;5.468;2023-05-10T09:54:52;15.80;99.90
13462;DHT22;6803;45.264;5.468;2023-05-10T09:57:24;16.50;99.90
13462;DHT22;6803;45.264;5.468;2023-05-10T09:59:56;16.40;99.90
13462;DHT22;6803;45.264;5.468;2023-05-10T10:02:30;16.60;99.90
13462;DHT22;6803;45.264;5.468;2023-05-10T10:05:02;16.60;99.90
13462;DHT22;6803;45.264;5.468;2023-05-10T10:07:34;16.60;99.90
13462;DHT22;6803;45.264;5.468;2023-05-10T10:10:07;17.50;99.90
13462;DHT22;6803;45.264;5.468;2023-05-10T10:12:41;17.80;99.90
13462;DHT22;6803;45.264;5.468;2023-05-10T10:15:14;17.30;99.90
13462;DHT22;6803;45.264;5.468;2023-05-10T10:17:45;16.90;99.90
13462;DHT22;6803;45.264;5.468;2023-05-10T10:20:18;17.10;99.90
13462;DHT22;6803;45.264;5.468;2023-05-10T10:22:50;16.70;99.90
13462;DHT22;6803;45.264;5.468;2023-05-10T10:25:22;16.20;99.90
13462;DHT22;6803;45.264;5.468;2023-05-10T10:30:41;15.40;99.90
13462;DHT22;6803;45.264;5.468;2023-05-10T10:39:07;14.70;99.90
13462;DHT22;6803;45.264;5.468;2023-05-10T10:41:37;14.80;99.90
13462;DHT22;6803;45.264;5.468;2023-05-10T10:44:38;14.50;99.90
13462;DHT22;6803;45.264;5.468;2023-05-10T10:47:24;14.40;99.90
13462;DHT22;6803;45.264;5.468;2023-05-10T10:50:06;14.40;99.90
13462;DHT22;6803;45.264;5.468;2023-05-10T10:52:38;14.70;99.90
13462;DHT22;6803;45.264;5.468;2023-05-10T10:55:11;14.70;99.90
13462;DHT22;6803;45.264;5.468;2023-05-10T10:57:48;14.90;99.90
13462;DHT22;6803;45.264;5.468;2023-05-10T11:00:29;14.90;99.90
13462;DHT22;6803;45.264;5.468;2023-05-10T11:03:19;15.20;99.90
13462;DHT22;6803;45.264;5.468;2023-05-10T11:05:53;15.40;99.90
13462;DHT22;6803;45.264;5.468;2023-05-10T11:08:29;15.30;99.90
13462;DHT22;6803;45.264;5.468;2023-05-10T11:11:07;15.40;99.90
13462;DHT22;6803;45.264;5.468;2023-05-10T11:13:43;15.30;99.90
13462;DHT22;6803;45.264;5.468;2023-05-10T11:16:20;15.00;99.90
13462;DHT22;6803;45.264;5.468;2023-05-10T11:19:01;15.10;99.90
13462;DHT22;6803;45.264;5.468;2023-05-10T11:21:33;15.40;99.90
13462;DHT22;6803;45.264;5.468;2023-05-10T11:26:44;15.80;99.90
13462;DHT22;6803;45.264;5.468;2023-05-10T11:29:15;16.00;99.90
13462;DHT22;6803;45.264;5.468;2023-05-10T11:31:47;16.00;99.90
13462;DHT22;6803;45.264;5.468;2023-05-10T11:34:28;16.10;99.90
13462;DHT22;6803;45.264;5.468;2023-05-10T11:37:00;16.00;99.90
13462;DHT22;6803;45.264;5.468;2023-05-10T11:39:32;16.50;99.90
13462;DHT22;6803;45.264;5.468;2023-05-10T11:42:02;16.90;99.90
13462;DHT22;6803;45.264;5.468;2023-05-10T11:44:34;16.80;99.90
13462;DHT22;6803;45.264;5.468;2023-05-10T11:47:06;17.00;99.90
13462;DHT22;6803;45.264;5.468;2023-05-10T11:49:37;16.50;99.90
13462;DHT22;6803;45.264;5.468;2023-05-10T11:52:09;16.80;99.90
13462;DHT22;6803;45.264;5.468;2023-05-10T11:54:51;17.00;99.90
13462;DHT22;6803;45.264;5.468;2023-05-10T11:57:26;17.40;99.90
13462;DHT22;6803;45.264;5.468;2023-05-10T11:59:58;17.20;99.90
13462;DHT22;6803;45.264;5.468;2023-05-10T12:02:30;16.60;99.90
13462;DHT22;6803;45.264;5.468;2023-05-10T12:05:01;17.00;99.90
13462;DHT22;6803;45.264;5.468;2023-05-10T12:07:34;17.00;99.90
13462;DHT22;6803;45.264;5.468;2023-05-10T12:10:08;18.20;99.90
13462;DHT22;6803;45.264;5.468;2023-05-10T12:12:41;18.90;99.90
13462;DHT22;6803;45.264;5.468;2023-05-10T12:15:19;18.60;99.90
13462;DHT22;6803;45.264;5.468;2023-05-10T12:17:52;18.80;99.90
13462;DHT22;6803;45.264;5.468;2023-05-10T12:20:26;18.30;99.90
13462;DHT22;6803;45.264;5.468;2023-05-10T12:22:59;18.10;99.90
13462;DHT22;6803;45.264;5.468;2023-05-10T12:25:33;18.00;99.90
13462;DHT22;6803;45.264;5.468;2023-05-10T12:28:07;17.70;99.90
13462;DHT22;6803;45.264;5.468;2023-05-10T12:30:39;17.70;99.90
13462;DHT22;6803;45.264;5.468;2023-05-10T12:35:48;17.90;99.90
13462;DHT22;6803;45.264;5.468;2023-05-10T12:38:29;17.50;99.90
13462;DHT22;6803;45.264;5.468;2023-05-10T12:41:03;17.50;99.90
13462;DHT22;6803;45.264;5.468;2023-05-10T12:43:34;17.10;99.90
13462;DHT22;6803;45.264;5.468;2023-05-10T12:46:09;17.00;99.90
13462;DHT22;6803;45.264;5.468;2023-05-10T12:48:41;17.00;99.90
13462;DHT22;6803;45.264;5.468;2023-05-10T12:51:13;16.90;99.90
13462;DHT22;6803;45.264;5.468;2023-05-10T12:53:45;16.50;99.90
13462;DHT22;6803;45.264;5.468;2023-05-10T12:56:18;16.30;99.90
13462;DHT22;6803;45.264;5.468;2023-05-10T12:58:49;15.90;99.90
13462;DHT22;6803;45.264;5.468;2023-05-10T13:01:20;16.20;99.90
13462;DHT22;6803;45.264;5.468;2023-05-10T13:03:51;16.20;99.90
13462;DHT22;6803;45.264;5.468;2023-05-10T13:06:22;16.00;99.90
13462;DHT22;6803;45.264;5.468;2023-05-10T13:08:52;16.10;99.90
13462;DHT22;6803;45.264;5.468;2023-05-10T13:11:23;16.00;99.90
13462;DHT22;6803;45.264;5.468;2023-05-10T13:13:54;16.10;99.90
13462;DHT22;6803;45.264;5.468;2023-05-10T13:16:25;16.30;99.90
13462;DHT22;6803;45.264;5.468;2023-05-10T13:18:55;16.60;99.90
13462;DHT22;6803;45.264;5.468;2023-05-10T13:21:26;16.80;99.90
13462;DHT22;6803;45.264;5.468;2023-05-10T13:23:57;16.50;99.90
13462;DHT22;6803;45.264;5.468;2023-05-10T13:26:29;16.60;99.90
13462;DHT22;6803;45.264;5.468;2023-05-10T13:29:00;16.30;99.90
13462;DHT22;6803;45.264;5.468;2023-05-10T13:31:31;16.20;99.90
13462;DHT22;6803;45.264;5.468;2023-05-10T13:34:03;15.70;99.90
13462;DHT22;6803;45.264;5.468;2023-05-10T13:36:35;15.60;99.90
13462;DHT22;6803;45.264;5.468;2023-05-10T13:39:06;15.40;99.90
13462;DHT22;6803;45.264;5.468;2023-05-10T13:41:38;15.00;99.90
13462;DHT22;6803;45.264;5.468;2023-05-10T13:44:09;14.70;99.90
13462;DHT22;6803;45.264;5.468;2023-05-10T13:46:40;14.50;99.90
13462;DHT22;6803;45.264;5.468;2023-05-10T13:49:11;14.40;99.90
13462;DHT22;6803;45.264;5.468;2023-05-10T13:51:43;14.60;99.90
13462;DHT22;6803;45.264;5.468;2023-05-10T13:54:14;14.70;99.90
13462;DHT22;6803;45.264;5.468;2023-05-10T13:56:46;14.80;99.90
13462;DHT22;6803;45.264;5.468;2023-05-10T13:59:17;14.90;99.90
13462;DHT22;6803;45.264;5.468;2023-05-10T14:01:48;15.00;99.90
13462;DHT22;6803;45.264;5.468;2023-05-10T14:04:18;15.40;99.90
13462;DHT22;6803;45.264;5.468;2023-05-10T14:06:49;15.60;99.90
13462;DHT22;6803;45.264;5.468;2023-05-10T14:09:22;15.80;99.90
13462;DHT22;6803;45.264;5.468;2023-05-10T14:11:53;16.10;99.90
13462;DHT22;6803;45.264;5.468;2023-05-10T14:14:26;16.00;99.90
13462;DHT22;6803;45.264;5.468;2023-05-10T14:16:58;16.10;99.90
13462;DHT22;6803;45.264;5.468;2023-05-10T14:19:29;16.30;99.90
13462;DHT22;6803;45.264;5.468;2023-05-10T14:22:03;16.50;99.90
13462;DHT22;6803;45.264;5.468;2023-05-10T14:24:34;16.30;99.90
13462;DHT22;6803;45.264;5.468;2023-05-10T14:27:05;16.00;99.90
13462;DHT22;6803;45.264;5.468;2023-05-10T14:29:36;16.10;99.90
13462;DHT22;6803;45.264;5.468;2023-05-10T14:32:07;15.80;99.90
13462;DHT22;6803;45.264;5.468;2023-05-10T14:34:37;15.60;99.90
13462;DHT22;6803;45.264;5.468;2023-05-10T14:37:09;15.40;99.90
13462;DHT22;6803;45.264;5.468;2023-05-10T14:39:40;15.30;99.90
13462;DHT22;6803;45.264;5.468;2023-05-10T14:42:12;15.10;99.90
13462;DHT22;6803;45.264;5.468;2023-05-10T14:44:42;14.90;99.90
13462;DHT22;6803;45.264;5.468;2023-05-10T14:47:13;14.80;99.90
13462;DHT22;6803;45.264;5.468;2023-05-10T14:49:44;14.70;99.90
13462;DHT22;6803;45.264;5.468;2023-05-10T14:52:16;14.80;99.90
13462;DHT22;6803;45.264;5.468;2023-05-10T14:54:46;14.80;99.90
13462;DHT22;6803;45.264;5.468;2023-05-10T14:57:17;14.70;99.90
13462;DHT22;6803;45.264;5.468;2023-05-10T14:59:48;14.60;99.90
13462;DHT22;6803;45.264;5.468;2023-05-10T15:02:19;14.60;99.90
13462;DHT22;6803;45.264;5.468;2023-05-10T15:04:51;14.60;99.90
13462;DHT22;6803;45.264;5.468;2023-05-10T15:07:22;14.80;99.90
13462;DHT22;6803;45.264;5.468;2023-05-10T15:09:53;15.10;99.90
13462;DHT22;6803;45.264;5.468;2023-05-10T15:12:24;15.30;99.90
13462;DHT22;6803;45.264;5.468;2023-05-10T15:14:54;15.40;99.90
13462;DHT22;6803;45.264;5.468;2023-05-10T15:17:25;15.50;99.90
13462;DHT22;6803;45.264;5.468;2023-05-10T15:19:56;15.50;99.90
13462;DHT22;6803;45.264;5.468;2023-05-10T15:22:27;15.40;99.90
13462;DHT22;6803;45.264;5.468;2023-05-10T15:25:00;15.70;99.90
13462;DHT22;6803;45.264;5.468;2023-05-10T15:27:31;15.60;99.90
13462;DHT22;6803;45.264;5.468;2023-05-10T15:30:01;15.60;99.90
13462;DHT22;6803;45.264;5.468;2023-05-10T15:32:32;15.40;99.90
13462;DHT22;6803;45.264;5.468;2023-05-10T15:35:04;15.20;99.90
13462;DHT22;6803;45.264;5.468;2023-05-10T15:37:34;15.10;99.90
13462;DHT22;6803;45.264;5.468;2023-05-10T15:40:08;15.30;99.90
13462;DHT22;6803;45.264;5.468;2023-05-10T15:42:38;15.40;99.90
13462;DHT22;6803;45.264;5.468;2023-05-10T15:45:11;15.50;99.90
13462;DHT22;6803;45.264;5.468;2023-05-10T15:47:42;15.40;99.90
13462;DHT22;6803;45.264;5.468;2023-05-10T15:50:13;15.10;99.90
13462;DHT22;6803;45.264;5.468;2023-05-10T15:52:45;15.20;99.90
13462;DHT22;6803;45.264;5.468;2023-05-10T15:55:15;15.60;99.90
13462;DHT22;6803;45.264;5.468;2023-05-10T15:57:47;16.60;99.90
13462;DHT22;6803;45.264;5.468;2023-05-10T16:00:19;16.60;99.90
13462;DHT22;6803;45.264;5.468;2023-05-10T16:02:51;16.30;99.90
13462;DHT22;6803;45.264;5.468;2023-05-10T16:05:23;15.70;99.90
13462;DHT22;6803;45.264;5.468;2023-05-10T16:07:55;15.60;99.90
13462;DHT22;6803;45.264;5.468;2023-05-10T16:10:26;15.40;99.90
13462;DHT22;6803;45.264;5.468;2023-05-10T16:12:57;15.40;99.90
13462;DHT22;6803;45.264;5.468;2023-05-10T16:15:28;15.20;99.90
13462;DHT22;6803;45.264;5.468;2023-05-10T16:17:59;14.90;99.90
13462;DHT22;6803;45.264;5.468;2023-05-10T16:20:31;14.70;99.90
13462;DHT22;6803;45.264;5.468;2023-05-10T16:23:04;14.80;99.90
13462;DHT22;6803;45.264;5.468;2023-05-10T16:25:35;15.00;99.90
13462;DHT22;6803;45.264;5.468;2023-05-10T16:28:06;15.00;99.90
13462;DHT22;6803;45.264;5.468;2023-05-10T16:33:15;15.00;99.90
13462;DHT22;6803;45.264;5.468;2023-05-10T16:35:46;14.90;99.90
13462;DHT22;6803;45.264;5.468;2023-05-10T16:38:17;14.90;99.90
13462;DHT22;6803;45.264;5.468;2023-05-10T16:40:49;14.50;99.90
13462;DHT22;6803;45.264;5.468;2023-05-10T16:43:20;14.60;99.90
13462;DHT22;6803;45.264;5.468;2023-05-10T16:45:52;14.60;99.90